Accueil
METAR-TAF:

METAR-TAF

Aéroports :

Aéroport de Sion

Sion, Suisse

latitude: 46-13N, longitude: 007-20E, altitude: 482 m

Observation

Le bulletin a été fait il y a 13 minutes, à 07:50 UTC
Vent 3 kt de direction variable
Température -3°C
Humidité 54%
Pression 995 hPa
Visibilité 10 km ou plus
Quelques nuages à une hauteur de 8000 ft
Nuages fragmentés à une hauteur de 14000 ft

METAR: LSGS 230750Z VRB03KT 9999 FEW080 BKN140 M03/M11 Q0995

Heure: 09:03 (08:03 UTC)

Prévision

Le bulletin a été fait il y a 2 heures et 38 minutes, à 05:25 UTC
Prévision valable du 23 à 06 UTC au 23 à 15 UTC
Vent 3 kt de direction variable
Visibilité 10 km ou plus
pas de nuages en-dessous de 1500 mètres et pas de cumulonimbus.
Evoluant progressivement
du 23 à 11 UTC au 23 à 14 UTC
Visibilité 10 km ou plus
Ciel couvert à une hauteur de 7000 ft

TAF: LSGS 230525Z 2306/2315 VRB03KT CAVOK BECMG 2311/2314 9999 OVC070

Observations et prévisions météorologiques de plus de 4000 aéroports (messages METAR et TAF).

Les stations disponibles sont représentées par des disques jaunes et rouges sur la carte.

Passer la souris dessus pour voir le nom de la station.

Cliquer dessus pour voir les observations et prévisions météorologiques.

Pour changer de carte: cliquez sur les boutons verts avec une croix noire pour zoomer, sur le bouton vert avec un tiret pour effectuer un zoom arrière, ou sur les flèches vertes pour les cartes adjacentes.


METAR-TAF: